sensor_id;sensor_type;location;lat;lon;timestamp;pressure;altitude;pressure_sealevel;temperature;humidity
11198;BME280;5655;48.744;9.162;2023-11-21T00:02:25;95511.50;;;8.96;100.00
11198;BME280;5655;48.744;9.162;2023-11-21T00:04:50;95514.72;;;8.69;100.00
11198;BME280;5655;48.744;9.162;2023-11-21T00:07:16;95526.25;;;8.80;100.00
11198;BME280;5655;48.744;9.162;2023-11-21T00:09:42;95524.38;;;8.84;100.00
11198;BME280;5655;48.744;9.162;2023-11-21T00:12:10;95530.94;;;8.97;100.00
11198;BME280;5655;48.744;9.162;2023-11-21T00:14:37;95533.53;;;8.90;100.00
11198;BME280;5655;48.744;9.162;2023-11-21T00:17:03;95534.16;;;8.65;100.00
11198;BME280;5655;48.744;9.162;2023-11-21T00:19:28;95534.94;;;8.70;100.00
11198;BME280;5655;48.744;9.162;2023-11-21T00:21:54;95543.06;;;8.87;100.00
11198;BME280;5655;48.744;9.162;2023-11-21T00:24:19;95534.75;;;8.96;100.00
11198;BME280;5655;48.744;9.162;2023-11-21T00:26:44;95533.56;;;8.93;100.00
11198;BME280;5655;48.744;9.162;2023-11-21T00:29:10;95536.63;;;8.92;100.00
11198;BME280;5655;48.744;9.162;2023-11-21T00:31:36;95532.09;;;9.03;100.00
11198;BME280;5655;48.744;9.162;2023-11-21T00:34:05;95537.50;;;9.10;100.00
11198;BME280;5655;48.744;9.162;2023-11-21T00:36:33;95536.22;;;8.90;100.00
11198;BME280;5655;48.744;9.162;2023-11-21T00:38:58;95537.31;;;8.82;100.00
11198;BME280;5655;48.744;9.162;2023-11-21T00:41:24;95545.75;;;8.91;100.00
11198;BME280;5655;48.744;9.162;2023-11-21T00:43:52;95551.09;;;8.91;100.00
11198;BME280;5655;48.744;9.162;2023-11-21T00:46:17;95543.50;;;8.93;100.00
11198;BME280;5655;48.744;9.162;2023-11-21T00:48:43;95543.38;;;8.79;100.00
11198;BME280;5655;48.744;9.162;2023-11-21T00:51:08;95545.94;;;8.64;100.00
11198;BME280;5655;48.744;9.162;2023-11-21T00:53:33;95565.38;;;8.65;100.00
11198;BME280;5655;48.744;9.162;2023-11-21T00:55:58;95562.44;;;8.81;100.00
11198;BME280;5655;48.744;9.162;2023-11-21T00:58:24;95564.72;;;8.79;100.00
11198;BME280;5655;48.744;9.162;2023-11-21T01:00:50;95560.53;;;8.78;100.00
11198;BME280;5655;48.744;9.162;2023-11-21T01:03:15;95565.50;;;8.79;100.00
11198;BME280;5655;48.744;9.162;2023-11-21T01:05:40;95574.94;;;8.66;100.00
11198;BME280;5655;48.744;9.162;2023-11-21T01:08:05;95572.34;;;8.80;100.00
11198;BME280;5655;48.744;9.162;2023-11-21T01:10:31;95573.97;;;8.92;100.00
11198;BME280;5655;48.744;9.162;2023-11-21T01:12:56;95573.81;;;8.71;100.00
11198;BME280;5655;48.744;9.162;2023-11-21T01:15:23;95574.22;;;8.76;100.00
11198;BME280;5655;48.744;9.162;2023-11-21T01:17:48;95585.09;;;8.53;100.00
11198;BME280;5655;48.744;9.162;2023-11-21T01:20:13;95591.25;;;8.61;100.00
11198;BME280;5655;48.744;9.162;2023-11-21T01:22:39;95604.25;;;8.62;100.00
11198;BME280;5655;48.744;9.162;2023-11-21T01:25:05;95618.06;;;8.75;100.00
11198;BME280;5655;48.744;9.162;2023-11-21T01:27:33;95611.25;;;8.85;100.00
11198;BME280;5655;48.744;9.162;2023-11-21T01:29:59;95624.56;;;8.78;100.00
11198;BME280;5655;48.744;9.162;2023-11-21T01:32:24;95625.75;;;8.84;100.00
11198;BME280;5655;48.744;9.162;2023-11-21T01:34:50;95628.44;;;8.84;100.00
11198;BME280;5655;48.744;9.162;2023-11-21T01:37:16;95619.31;;;8.88;100.00
11198;BME280;5655;48.744;9.162;2023-11-21T01:39:43;95628.34;;;8.77;100.00
11198;BME280;5655;48.744;9.162;2023-11-21T01:42:10;95630.75;;;8.89;100.00
11198;BME280;5655;48.744;9.162;2023-11-21T01:44:38;95627.34;;;8.92;100.00
11198;BME280;5655;48.744;9.162;2023-11-21T01:47:04;95622.00;;;8.92;100.00
11198;BME280;5655;48.744;9.162;2023-11-21T01:49:32;95618.16;;;8.89;100.00
11198;BME280;5655;48.744;9.162;2023-11-21T01:51:59;95612.31;;;9.21;100.00
11198;BME280;5655;48.744;9.162;2023-11-21T01:54:25;95598.44;;;9.01;100.00
11198;BME280;5655;48.744;9.162;2023-11-21T01:56:50;95599.25;;;9.05;100.00
11198;BME280;5655;48.744;9.162;2023-11-21T01:59:19;95614.16;;;9.09;100.00
11198;BME280;5655;48.744;9.162;2023-11-21T02:01:46;95598.44;;;9.01;100.00
11198;BME280;5655;48.744;9.162;2023-11-21T02:04:12;95611.25;;;8.85;100.00
11198;BME280;5655;48.744;9.162;2023-11-21T02:06:38;95611.34;;;8.92;100.00
11198;BME280;5655;48.744;9.162;2023-11-21T02:09:04;95612.88;;;8.93;100.00
11198;BME280;5655;48.744;9.162;2023-11-21T02:11:30;95616.78;;;9.06;100.00
11198;BME280;5655;48.744;9.162;2023-11-21T02:13:55;95604.56;;;9.05;100.00
11198;BME280;5655;48.744;9.162;2023-11-21T02:16:20;95606.13;;;9.09;100.00
11198;BME280;5655;48.744;9.162;2023-11-21T02:18:50;95606.13;;;9.09;100.00
11198;BME280;5655;48.744;9.162;2023-11-21T02:21:16;95598.97;;;8.73;100.00
11198;BME280;5655;48.744;9.162;2023-11-21T02:23:42;95598.31;;;8.83;100.00
11198;BME280;5655;48.744;9.162;2023-11-21T02:26:10;95592.25;;;8.90;100.00
11198;BME280;5655;48.744;9.162;2023-11-21T02:28:36;95586.72;;;9.16;100.00
11198;BME280;5655;48.744;9.162;2023-11-21T02:31:02;95581.25;;;8.95;100.00
11198;BME280;5655;48.744;9.162;2023-11-21T02:33:29;95577.22;;;9.19;100.00
11198;BME280;5655;48.744;9.162;2023-11-21T02:35:54;95571.09;;;9.18;100.00
11198;BME280;5655;48.744;9.162;2023-11-21T02:38:22;95573.34;;;9.09;100.00
11198;BME280;5655;48.744;9.162;2023-11-21T02:40:48;95560.34;;;9.07;100.00
11198;BME280;5655;48.744;9.162;2023-11-21T02:43:14;95555.22;;;8.81;100.00
11198;BME280;5655;48.744;9.162;2023-11-21T02:45:39;95557.19;;;8.88;100.00
11198;BME280;5655;48.744;9.162;2023-11-21T02:48:06;95554.19;;;8.96;100.00
11198;BME280;5655;48.744;9.162;2023-11-21T02:50:32;95557.81;;;8.71;100.00
11198;BME280;5655;48.744;9.162;2023-11-21T02:52:57;95551.75;;;8.77;100.00
11198;BME280;5655;48.744;9.162;2023-11-21T02:55:26;95556.66;;;8.72;100.00
11198;BME280;5655;48.744;9.162;2023-11-21T02:57:51;95560.06;;;8.69;100.00
11198;BME280;5655;48.744;9.162;2023-11-21T03:00:16;95551.84;;;8.88;100.00
11198;BME280;5655;48.744;9.162;2023-11-21T03:02:42;95544.19;;;8.83;100.00
11198;BME280;5655;48.744;9.162;2023-11-21T03:05:08;95544.97;;;8.90;100.00
11198;BME280;5655;48.744;9.162;2023-11-21T03:07:34;95542.69;;;8.89;100.00
11198;BME280;5655;48.744;9.162;2023-11-21T03:10:00;95537.31;;;8.82;100.00
11198;BME280;5655;48.744;9.162;2023-11-21T03:12:25;95542.66;;;8.85;100.00
11198;BME280;5655;48.744;9.162;2023-11-21T03:14:51;95544.94;;;8.83;100.00
11198;BME280;5655;48.744;9.162;2023-11-21T03:17:16;95545.66;;;8.77;100.00
11198;BME280;5655;48.744;9.162;2023-11-21T03:19:42;95539.63;;;8.87;100.00
11198;BME280;5655;48.744;9.162;2023-11-21T03:22:07;95534.25;;;8.80;100.00
11198;BME280;5655;48.744;9.162;2023-11-21T03:24:33;95538.88;;;8.90;100.00
11198;BME280;5655;48.744;9.162;2023-11-21T03:26:59;95541.88;;;8.85;100.00
11198;BME280;5655;48.744;9.162;2023-11-21T03:29:25;95538.81;;;8.76;100.00
11198;BME280;5655;48.744;9.162;2023-11-21T03:31:51;95547.22;;;8.85;100.00
11198;BME280;5655;48.744;9.162;2023-11-21T03:34:25;95544.13;;;8.76;100.00
11198;BME280;5655;48.744;9.162;2023-11-21T03:36:53;95552.47;;;8.71;100.00
11198;BME280;5655;48.744;9.162;2023-11-21T03:39:20;95550.34;;;8.94;100.00
11198;BME280;5655;48.744;9.162;2023-11-21T03:41:46;95547.19;;;8.78;100.00
11198;BME280;5655;48.744;9.162;2023-11-21T03:44:11;95549.84;;;8.78;100.00
11198;BME280;5655;48.744;9.162;2023-11-21T03:46:37;95551.44;;;8.89;100.00
11198;BME280;5655;48.744;9.162;2023-11-21T03:49:02;95542.75;;;8.96;100.00
11198;BME280;5655;48.744;9.162;2023-11-21T03:51:27;95541.84;;;8.78;100.00
11198;BME280;5655;48.744;9.162;2023-11-21T03:53:53;95538.34;;;8.67;100.00
11198;BME280;5655;48.744;9.162;2023-11-21T03:56:19;95545.28;;;8.75;100.00
11198;BME280;5655;48.744;9.162;2023-11-21T03:58:45;95552.06;;;8.69;100.00
11198;BME280;5655;48.744;9.162;2023-11-21T04:01:11;95549.84;;;8.78;100.00
11198;BME280;5655;48.744;9.162;2023-11-21T04:03:36;95555.53;;;8.73;100.00
11198;BME280;5655;48.744;9.162;2023-11-21T04:06:01;95555.03;;;8.56;100.00
11198;BME280;5655;48.744;9.162;2023-11-21T04:08:26;95567.63;;;8.59;100.00
11198;BME280;5655;48.744;9.162;2023-11-21T04:10:52;95576.53;;;8.78;100.00
11198;BME280;5655;48.744;9.162;2023-11-21T04:13:18;95572.19;;;8.59;100.00
11198;BME280;5655;48.744;9.162;2023-11-21T04:15:44;95582.13;;;8.58;100.00
11198;BME280;5655;48.744;9.162;2023-11-21T04:18:09;95580.75;;;8.79;100.00
11198;BME280;5655;48.744;9.162;2023-11-21T04:20:35;95574.78;;;8.99;100.00
11198;BME280;5655;48.744;9.162;2023-11-21T04:23:00;95578.56;;;8.95;100.00
11198;BME280;5655;48.744;9.162;2023-11-21T04:25:26;95580.03;;;9.47;100.00
11198;BME280;5655;48.744;9.162;2023-11-21T04:27:52;95565.63;;;8.97;100.00
11198;BME280;5655;48.744;9.162;2023-11-21T04:30:17;95561.88;;;9.05;100.00
11198;BME280;5655;48.744;9.162;2023-11-21T04:32:43;95557.50;;;8.79;100.00
11198;BME280;5655;48.744;9.162;2023-11-21T04:35:08;95559.69;;;8.67;100.00
11198;BME280;5655;48.744;9.162;2023-11-21T04:37:34;95569.41;;;8.92;100.00
11198;BME280;5655;48.744;9.162;2023-11-21T04:39:59;95568.31;;;8.97;100.00
11198;BME280;5655;48.744;9.162;2023-11-21T04:42:24;95565.56;;;8.90;100.00
11198;BME280;5655;48.744;9.162;2023-11-21T04:44:50;95562.25;;;9.07;100.00
11198;BME280;5655;48.744;9.162;2023-11-21T04:47:15;95561.31;;;8.82;100.00
11198;BME280;5655;48.744;9.162;2023-11-21T04:49:45;95575.56;;;9.00;100.00
11198;BME280;5655;48.744;9.162;2023-11-21T04:52:12;95567.56;;;8.52;100.00
11198;BME280;5655;48.744;9.162;2023-11-21T04:54:37;95581.94;;;8.41;100.00
11198;BME280;5655;48.744;9.162;2023-11-21T04:57:02;95592.72;;;8.55;100.00
11198;BME280;5655;48.744;9.162;2023-11-21T04:59:29;95594.28;;;8.59;100.00
11198;BME280;5655;48.744;9.162;2023-11-21T05:01:54;95601.97;;;8.64;100.00
11198;BME280;5655;48.744;9.162;2023-11-21T05:04:20;95604.84;;;8.45;100.00
11198;BME280;5655;48.744;9.162;2023-11-21T05:06:47;95609.16;;;8.60;100.00
11198;BME280;5655;48.744;9.162;2023-11-21T05:09:13;95608.81;;;8.62;100.00
11198;BME280;5655;48.744;9.162;2023-11-21T05:11:38;95609.97;;;8.64;100.00
11198;BME280;5655;48.744;9.162;2023-11-21T05:14:04;95618.31;;;8.26;100.00
11198;BME280;5655;48.744;9.162;2023-11-21T05:16:30;95631.84;;;8.40;100.00
11198;BME280;5655;48.744;9.162;2023-11-21T05:18:56;95630.78;;;8.48;100.00
11198;BME280;5655;48.744;9.162;2023-11-21T05:21:29;95630.22;;;8.73;100.00
11198;BME280;5655;48.744;9.162;2023-11-21T05:23:57;95634.59;;;8.51;100.00
11198;BME280;5655;48.744;9.162;2023-11-21T05:26:22;95640.56;;;8.37;100.00
11198;BME280;5655;48.744;9.162;2023-11-21T05:28:47;95640.41;;;8.23;100.00
11198;BME280;5655;48.744;9.162;2023-11-21T05:31:13;95659.47;;;8.29;100.00
11198;BME280;5655;48.744;9.162;2023-11-21T05:33:38;95664.19;;;8.39;100.00
11198;BME280;5655;48.744;9.162;2023-11-21T05:36:04;95671.41;;;8.38;100.00
11198;BME280;5655;48.744;9.162;2023-11-21T05:38:29;95671.25;;;8.57;100.00
11198;BME280;5655;48.744;9.162;2023-11-21T05:40:55;95664.22;;;8.42;100.00
11198;BME280;5655;48.744;9.162;2023-11-21T05:43:20;95665.88;;;8.54;100.00
11198;BME280;5655;48.744;9.162;2023-11-21T05:45:45;95651.03;;;8.56;100.00
11198;BME280;5655;48.744;9.162;2023-11-21T05:48:11;95651.28;;;8.41;100.00
11198;BME280;5655;48.744;9.162;2023-11-21T05:50:36;95653.84;;;8.34;100.00
11198;BME280;5655;48.744;9.162;2023-11-21T05:53:03;95649.09;;;8.50;100.00
11198;BME280;5655;48.744;9.162;2023-11-21T05:55:28;95655.38;;;8.72;100.00
11198;BME280;5655;48.744;9.162;2023-11-21T05:57:53;95651.31;;;8.44;100.00
11198;BME280;5655;48.744;9.162;2023-11-21T06:00:19;95643.38;;;8.51;100.00
11198;BME280;5655;48.744;9.162;2023-11-21T06:02:49;95650.84;;;8.76;100.00
11198;BME280;5655;48.744;9.162;2023-11-21T06:05:19;95641.69;;;8.77;100.00
11198;BME280;5655;48.744;9.162;2023-11-21T06:07:45;95646.50;;;8.60;100.00
11198;BME280;5655;48.744;9.162;2023-11-21T06:10:11;95643.97;;;8.75;100.00
11198;BME280;5655;48.744;9.162;2023-11-21T06:12:38;95645.38;;;8.61;100.00
11198;BME280;5655;48.744;9.162;2023-11-21T06:15:05;95652.31;;;8.70;100.00
11198;BME280;5655;48.744;9.162;2023-11-21T06:17:36;95655.91;;;8.88;100.00
11198;BME280;5655;48.744;9.162;2023-11-21T06:20:05;95672.38;;;8.97;100.00
11198;BME280;5655;48.744;9.162;2023-11-21T06:22:34;95672.31;;;8.90;100.00
11198;BME280;5655;48.744;9.162;2023-11-21T06:24:59;95672.09;;;9.09;100.00
11198;BME280;5655;48.744;9.162;2023-11-21T06:27:25;95666.97;;;8.90;100.00
11198;BME280;5655;48.744;9.162;2023-11-21T06:29:50;95665.56;;;9.03;100.00
11198;BME280;5655;48.744;9.162;2023-11-21T06:32:15;95664.00;;;9.02;100.00
11198;BME280;5655;48.744;9.162;2023-11-21T06:34:41;95661.00;;;9.07;100.00
11198;BME280;5655;48.744;9.162;2023-11-21T06:37:06;95664.38;;;8.56;100.00
11198;BME280;5655;48.744;9.162;2023-11-21T06:39:31;95672.09;;;8.69;100.00
11198;BME280;5655;48.744;9.162;2023-11-21T06:41:57;95685.66;;;8.49;100.00
11198;BME280;5655;48.744;9.162;2023-11-21T06:44:24;95700.06;;;8.45;100.00
11198;BME280;5655;48.744;9.162;2023-11-21T06:46:49;95720.06;;;8.61;100.00
11198;BME280;5655;48.744;9.162;2023-11-21T06:49:15;95722.53;;;8.81;100.00
11198;BME280;5655;48.744;9.162;2023-11-21T06:51:41;95724.41;;;8.77;100.00
11198;BME280;5655;48.744;9.162;2023-11-21T06:54:07;95725.44;;;8.65;100.00
11198;BME280;5655;48.744;9.162;2023-11-21T06:56:32;95721.06;;;8.83;100.00
11198;BME280;5655;48.744;9.162;2023-11-21T06:58:57;95728.16;;;8.72;100.00
11198;BME280;5655;48.744;9.162;2023-11-21T07:01:23;95728.34;;;8.90;100.00
11198;BME280;5655;48.744;9.162;2023-11-21T07:03:48;95730.69;;;8.58;100.00
11198;BME280;5655;48.744;9.162;2023-11-21T07:06:13;95743.34;;;8.64;100.00
11198;BME280;5655;48.744;9.162;2023-11-21T07:08:38;95748.81;;;8.79;100.00
11198;BME280;5655;48.744;9.162;2023-11-21T07:11:04;95753.66;;;8.66;100.00
11198;BME280;5655;48.744;9.162;2023-11-21T07:13:30;95753.09;;;8.87;100.00
11198;BME280;5655;48.744;9.162;2023-11-21T07:15:55;95757.63;;;8.83;100.00
11198;BME280;5655;48.744;9.162;2023-11-21T07:18:20;95757.56;;;8.76;100.00
11198;BME280;5655;48.744;9.162;2023-11-21T07:20:46;95754.34;;;8.63;100.00
11198;BME280;5655;48.744;9.162;2023-11-21T07:23:11;95761.47;;;8.85;100.00
11198;BME280;5655;48.744;9.162;2023-11-21T07:25:36;95769.69;;;8.70;100.00
11198;BME280;5655;48.744;9.162;2023-11-21T07:28:01;95774.28;;;8.73;100.00
11198;BME280;5655;48.744;9.162;2023-11-21T07:30:27;95780.34;;;8.70;100.00
11198;BME280;5655;48.744;9.162;2023-11-21T07:32:52;95782.69;;;8.71;100.00
11198;BME280;5655;48.744;9.162;2023-11-21T07:35:17;95790.41;;;8.80;100.00
11198;BME280;5655;48.744;9.162;2023-11-21T07:37:43;95799.78;;;8.67;100.00
11198;BME280;5655;48.744;9.162;2023-11-21T07:40:08;95803.41;;;8.55;100.00
11198;BME280;5655;48.744;9.162;2023-11-21T07:42:34;95819.34;;;8.48;100.00
11198;BME280;5655;48.744;9.162;2023-11-21T07:44:59;95832.88;;;8.62;100.00
11198;BME280;5655;48.744;9.162;2023-11-21T07:47:24;95835.97;;;8.68;100.00
11198;BME280;5655;48.744;9.162;2023-11-21T07:49:52;95834.59;;;8.81;100.00
11198;BME280;5655;48.744;9.162;2023-11-21T07:52:17;95847.63;;;8.86;100.00
11198;BME280;5655;48.744;9.162;2023-11-21T07:54:42;95845.28;;;8.81;100.00
11198;BME280;5655;48.744;9.162;2023-11-21T07:57:08;95848.94;;;8.69;100.00
11198;BME280;5655;48.744;9.162;2023-11-21T07:59:33;95853.78;;;8.90;100.00
11198;BME280;5655;48.744;9.162;2023-11-21T08:01:58;95845.50;;;9.02;100.00
11198;BME280;5655;48.744;9.162;2023-11-21T08:04:24;95849.19;;;8.90;100.00
11198;BME280;5655;48.744;9.162;2023-11-21T08:06:49;95849.72;;;9.03;100.00
11198;BME280;5655;48.744;9.162;2023-11-21T08:09:14;95848.00;;;9.18;100.00
11198;BME280;5655;48.744;9.162;2023-11-21T08:11:40;95851.88;;;8.90;100.00
11198;BME280;5655;48.744;9.162;2023-11-21T08:14:05;95860.22;;;8.89;100.00
11198;BME280;5655;48.744;9.162;2023-11-21T08:16:31;95863.75;;;8.93;100.00
11198;BME280;5655;48.744;9.162;2023-11-21T08:18:56;95852.66;;;8.91;100.00
11198;BME280;5655;48.744;9.162;2023-11-21T08:21:21;95859.22;;;8.97;100.00
11198;BME280;5655;48.744;9.162;2023-11-21T08:23:49;95859.16;;;8.93;100.00
11198;BME280;5655;48.744;9.162;2023-11-21T08:26:18;95862.00;;;8.78;100.00
11198;BME280;5655;48.744;9.162;2023-11-21T08:28:44;95871.56;;;8.79;100.00
11198;BME280;5655;48.744;9.162;2023-11-21T08:31:09;95870.75;;;9.08;100.00
11198;BME280;5655;48.744;9.162;2023-11-21T08:33:34;95854.81;;;9.15;100.00
11198;BME280;5655;48.744;9.162;2023-11-21T08:35:59;95856.09;;;9.28;100.00
11198;BME280;5655;48.744;9.162;2023-11-21T08:38:26;95839.66;;;9.23;100.00
11198;BME280;5655;48.744;9.162;2023-11-21T08:40:51;95843.53;;;9.32;100.00
11198;BME280;5655;48.744;9.162;2023-11-21T08:43:16;95832.72;;;9.15;100.00
11198;BME280;5655;48.744;9.162;2023-11-21T08:45:44;95836.63;;;9.28;100.00
11198;BME280;5655;48.744;9.162;2023-11-21T08:48:10;95840.28;;;9.09;100.00
11198;BME280;5655;48.744;9.162;2023-11-21T08:50:36;95839.78;;;9.37;100.00
11198;BME280;5655;48.744;9.162;2023-11-21T08:53:01;95837.09;;;9.33;100.00
11198;BME280;5655;48.744;9.162;2023-11-21T08:55:27;95831.25;;;9.24;100.00
11198;BME280;5655;48.744;9.162;2023-11-21T08:57:53;95845.78;;;9.23;100.00
11198;BME280;5655;48.744;9.162;2023-11-21T09:00:18;95850.00;;;9.68;100.00
11198;BME280;5655;48.744;9.162;2023-11-21T09:02:44;95834.13;;;9.45;100.00
11198;BME280;5655;48.744;9.162;2023-11-21T09:05:10;95827.59;;;9.39;100.00
11198;BME280;5655;48.744;9.162;2023-11-21T09:07:36;95828.41;;;9.43;100.00
11198;BME280;5655;48.744;9.162;2023-11-21T09:10:02;95840.09;;;9.72;100.00
11198;BME280;5655;48.744;9.162;2023-11-21T09:12:28;95818.44;;;9.84;100.00
11198;BME280;5655;48.744;9.162;2023-11-21T09:14:53;95813.97;;;9.99;100.00
11198;BME280;5655;48.744;9.162;2023-11-21T09:17:18;95806.88;;;10.17;100.00
11198;BME280;5655;48.744;9.162;2023-11-21T09:19:44;95806.59;;;9.82;100.00
11198;BME280;5655;48.744;9.162;2023-11-21T09:22:12;95793.84;;;10.16;100.00
11198;BME280;5655;48.744;9.162;2023-11-21T09:24:37;95787.81;;;10.29;100.00
11198;BME280;5655;48.744;9.162;2023-11-21T09:27:02;95783.31;;;10.44;100.00
11198;BME280;5655;48.744;9.162;2023-11-21T09:29:28;95781.69;;;10.22;100.00
11198;BME280;5655;48.744;9.162;2023-11-21T09:31:54;95776.44;;;10.39;100.00
11198;BME280;5655;48.744;9.162;2023-11-21T09:34:20;95775.31;;;10.51;100.00
11198;BME280;5655;48.744;9.162;2023-11-21T09:36:45;95777.16;;;10.40;100.00
11198;BME280;5655;48.744;9.162;2023-11-21T09:39:10;95779.44;;;10.34;100.00
11198;BME280;5655;48.744;9.162;2023-11-21T09:44:04;95775.94;;;10.27;100.00
11198;BME280;5655;48.744;9.162;2023-11-21T09:46:32;95773.00;;;10.42;100.00
11198;BME280;5655;48.744;9.162;2023-11-21T09:48:58;95765.66;;;10.29;100.00
11198;BME280;5655;48.744;9.162;2023-11-21T09:51:26;95751.94;;;10.37;100.00
11198;BME280;5655;48.744;9.162;2023-11-21T09:53:54;95759.19;;;10.30;100.00
11198;BME280;5655;48.744;9.162;2023-11-21T09:56:23;95752.75;;;10.48;100.00
11198;BME280;5655;48.744;9.162;2023-11-21T09:58:51;95753.00;;;10.19;100.00
11198;BME280;5655;48.744;9.162;2023-11-21T10:01:17;95749.59;;;10.25;100.00
11198;BME280;5655;48.744;9.162;2023-11-21T10:03:43;95752.69;;;10.31;100.00
11198;BME280;5655;48.744;9.162;2023-11-21T10:06:08;95750.38;;;10.29;100.00
11198;BME280;5655;48.744;9.162;2023-11-21T10:08:34;95748.47;;;10.30;100.00
11198;BME280;5655;48.744;9.162;2023-11-21T10:11:01;95749.59;;;10.25;100.00
11198;BME280;5655;48.744;9.162;2023-11-21T10:13:27;95742.72;;;10.31;100.00
11198;BME280;5655;48.744;9.162;2023-11-21T10:15:55;95748.50;;;10.33;100.00
11198;BME280;5655;48.744;9.162;2023-11-21T10:18:20;95744.28;;;10.36;100.00
11198;BME280;5655;48.744;9.162;2023-11-21T10:20:48;95742.69;;;10.17;100.00
11198;BME280;5655;48.744;9.162;2023-11-21T10:23:17;95752.97;;;10.15;100.00
11198;BME280;5655;48.744;9.162;2023-11-21T10:25:43;95749.50;;;10.11;100.00
11198;BME280;5655;48.744;9.162;2023-11-21T10:28:09;95751.00;;;10.05;100.00
11198;BME280;5655;48.744;9.162;2023-11-21T10:30:36;95759.81;;;10.09;100.00
11198;BME280;5655;48.744;9.162;2023-11-21T10:33:02;95763.94;;;9.96;100.00
11198;BME280;5655;48.744;9.162;2023-11-21T10:35:42;95763.88;;;9.92;100.00
11198;BME280;5655;48.744;9.162;2023-11-21T10:38:11;95778.47;;;10.06;100.00
11198;BME280;5655;48.744;9.162;2023-11-21T10:40:39;95776.13;;;9.93;100.00
11198;BME280;5655;48.744;9.162;2023-11-21T10:43:07;95786.13;;;10.03;100.00
11198;BME280;5655;48.744;9.162;2023-11-21T10:45:34;95796.78;;;9.96;100.00
11198;BME280;5655;48.744;9.162;2023-11-21T10:47:59;95795.09;;;9.78;100.00
11198;BME280;5655;48.744;9.162;2023-11-21T10:50:25;95805.47;;;9.83;100.00
11198;BME280;5655;48.744;9.162;2023-11-21T10:52:51;95816.50;;;9.78;100.00
11198;BME280;5655;48.744;9.162;2023-11-21T10:55:16;95811.94;;;9.82;100.00
11198;BME280;5655;48.744;9.162;2023-11-21T10:57:42;95812.00;;;9.92;100.00
11198;BME280;5655;48.744;9.162;2023-11-21T11:00:08;95818.47;;;9.88;100.00
11198;BME280;5655;48.744;9.162;2023-11-21T11:02:38;95818.13;;;9.93;100.00
11198;BME280;5655;48.744;9.162;2023-11-21T11:05:04;95815.13;;;10.01;100.00
11198;BME280;5655;48.744;9.162;2023-11-21T11:07:31;95814.31;;;9.97;100.00
11198;BME280;5655;48.744;9.162;2023-11-21T11:09:59;95803.78;;;10.15;100.00
11198;BME280;5655;48.744;9.162;2023-11-21T11:12:25;95809.22;;;10.29;100.00
11198;BME280;5655;48.744;9.162;2023-11-21T11:14:50;95797.03;;;10.35;100.00
11198;BME280;5655;48.744;9.162;2023-11-21T11:17:16;95796.19;;;10.24;100.00
11198;BME280;5655;48.744;9.162;2023-11-21T11:19:41;95794.19;;;10.14;100.00
11198;BME280;5655;48.744;9.162;2023-11-21T11:30:07;95799.22;;;10.19;100.00
11198;BME280;5655;48.744;9.162;2023-11-21T11:35:25;95804.97;;;10.21;100.00
11198;BME280;5655;48.744;9.162;2023-11-21T11:37:51;95806.94;;;10.31;100.00
11198;BME280;5655;48.744;9.162;2023-11-21T11:40:17;95813.78;;;10.25;100.00
11198;BME280;5655;48.744;9.162;2023-11-21T11:42:57;95812.97;;;10.18;100.00
11198;BME280;5655;48.744;9.162;2023-11-21T11:45:23;95811.41;;;10.13;100.00
11198;BME280;5655;48.744;9.162;2023-11-21T11:47:56;95819.81;;;10.15;100.00
11198;BME280;5655;48.744;9.162;2023-11-21T11:50:21;95820.72;;;10.33;100.00
11198;BME280;5655;48.744;9.162;2023-11-21T11:52:47;95817.56;;;10.17;100.00
11198;BME280;5655;48.744;9.162;2023-11-21T11:55:14;95823.81;;;10.42;100.00
11198;BME280;5655;48.744;9.162;2023-11-21T11:57:43;95820.72;;;10.33;100.00
11198;BME280;5655;48.744;9.162;2023-11-21T12:02:38;95814.25;;;10.41;100.00
11198;BME280;5655;48.744;9.162;2023-11-21T12:05:13;95816.91;;;10.34;100.00
11198;BME280;5655;48.744;9.162;2023-11-21T12:07:42;95808.88;;;10.38;100.00
11198;BME280;5655;48.744;9.162;2023-11-21T12:10:08;95808.91;;;10.41;100.00
11198;BME280;5655;48.744;9.162;2023-11-21T12:12:36;95812.41;;;10.53;100.00
11198;BME280;5655;48.744;9.162;2023-11-21T12:15:03;95805.94;;;10.61;100.00
11198;BME280;5655;48.744;9.162;2023-11-21T12:17:30;95802.94;;;10.80;100.00
11198;BME280;5655;48.744;9.162;2023-11-21T12:20:01;95799.16;;;10.88;100.00
11198;BME280;5655;48.744;9.162;2023-11-21T12:22:27;95805.63;;;10.73;100.00
11198;BME280;5655;48.744;9.162;2023-11-21T12:24:53;95799.50;;;10.79;100.00
11198;BME280;5655;48.744;9.162;2023-11-21T12:27:20;95794.94;;;10.83;100.00
11198;BME280;5655;48.744;9.162;2023-11-21T12:29:45;95793.78;;;10.74;100.00
11198;BME280;5655;48.744;9.162;2023-11-21T12:32:11;95779.25;;;10.82;100.00
11198;BME280;5655;48.744;9.162;2023-11-21T12:34:36;95781.19;;;10.85;100.00
11198;BME280;5655;48.744;9.162;2023-11-21T12:37:01;95782.72;;;10.89;100.00
11198;BME280;5655;48.744;9.162;2023-11-21T12:39:26;95780.41;;;10.88;100.00
11198;BME280;5655;48.744;9.162;2023-11-21T12:41:51;95787.66;;;10.84;100.00
11198;BME280;5655;48.744;9.162;2023-11-21T12:44:17;95780.41;;;10.81;100.00
11198;BME280;5655;48.744;9.162;2023-11-21T12:46:43;95787.66;;;10.84;100.00
11198;BME280;5655;48.744;9.162;2023-11-21T12:49:10;95778.84;;;10.80;100.00
11198;BME280;5655;48.744;9.162;2023-11-21T12:51:42;95777.72;;;10.74;100.00
11198;BME280;5655;48.744;9.162;2023-11-21T12:54:07;95786.47;;;10.64;100.00
11198;BME280;5655;48.744;9.162;2023-11-21T12:56:37;95781.94;;;10.89;100.00
11198;BME280;5655;48.744;9.162;2023-11-21T12:59:03;95783.78;;;10.71;100.00
11198;BME280;5655;48.744;9.162;2023-11-21T13:01:29;95789.13;;;10.57;100.00
11198;BME280;5655;48.744;9.162;2023-11-21T13:03:57;95790.97;;;10.45;100.00
11198;BME280;5655;48.744;9.162;2023-11-21T13:06:22;95794.78;;;10.44;100.00
11198;BME280;5655;48.744;9.162;2023-11-21T13:08:50;95797.06;;;10.42;100.00
11198;BME280;5655;48.744;9.162;2023-11-21T13:11:15;95791.75;;;10.50;100.00
11198;BME280;5655;48.744;9.162;2023-11-21T13:13:43;95787.59;;;10.59;100.00
11198;BME280;5655;48.744;9.162;2023-11-21T13:16:08;95784.22;;;10.80;100.00
11198;BME280;5655;48.744;9.162;2023-11-21T13:18:34;95797.34;;;11.17;100.00